Time;durP1;ratioP1;P1;durP2;ratioP2;P2;SDS_P1;SDS_P2;PMS_P1;PMS_P2;Temp;Humidity;BMP_temperature;BMP_pressure;BME280_temperature;BME280_humidity;BME280_pressure;Samples;Min_cycle;Max_cycle;Signal;HPM_P1;HPM_P2
2023/07/30 00:01:15;;;;;;;0.25;0.17;;;13.60;99.90;;;;;;5074864;28;20044;-71
2023/07/30 00:03:42;;;;;;;1.05;0.30;;;13.50;99.90;;;;;;5075011;28;20395;-71
2023/07/30 00:06:07;;;;;;;0.00;0.00;;;13.60;99.90;;;;;;5075560;28;20044;-71
2023/07/30 00:08:33;;;;;;;0.70;0.43;;;13.70;99.90;;;;;;5075538;28;20044;-71
2023/07/30 00:10:58;;;;;;;0.45;0.25;;;13.60;99.90;;;;;;5074464;28;20487;-71
2023/07/30 00:13:25;;;;;;;0.80;0.75;;;13.60;99.90;;;;;;5075334;28;20047;-73
2023/07/30 00:15:50;;;;;;;0.32;0.30;;;13.60;99.90;;;;;;5074893;28;20041;-73
2023/07/30 00:18:16;;;;;;;0.57;0.57;;;13.60;99.90;;;;;;5075272;28;20505;-73
2023/07/30 00:20:43;;;;;;;4.28;1.50;;;13.60;99.90;;;;;;5074372;28;20045;-73
2023/07/30 00:23:08;;;;;;;0.08;0.08;;;13.70;99.90;;;;;;5075284;28;20093;-73
2023/07/30 00:25:34;;;;;;;0.30;0.22;;;13.60;99.90;;;;;;5074900;28;20044;-73
2023/07/30 00:28:00;;;;;;;1.05;0.95;;;13.50;99.90;;;;;;5074744;28;20042;-73
2023/07/30 00:30:25;;;;;;;3.53;2.20;;;13.50;99.90;;;;;;5069281;28;20044;-73
2023/07/30 00:32:51;;;;;;;0.95;0.73;;;13.50;99.90;;;;;;5066566;28;20076;-73
2023/07/30 00:35:17;;;;;;;0.10;0.10;;;13.40;99.90;;;;;;5074362;28;20048;-73
2023/07/30 00:37:42;;;;;;;0.00;0.00;;;13.40;99.90;;;;;;5074897;28;20036;-73
2023/07/30 00:40:08;;;;;;;0.98;0.65;;;13.30;99.90;;;;;;5074019;28;20068;-73
2023/07/30 00:42:34;;;;;;;0.15;0.13;;;13.30;99.90;;;;;;5060683;28;20044;-73
2023/07/30 00:45:00;;;;;;;2.42;1.85;;;13.30;99.90;;;;;;5074289;28;20056;-73
2023/07/30 00:47:26;;;;;;;0.17;0.10;;;13.20;99.90;;;;;;5074711;28;20032;-73
2023/07/30 00:49:52;;;;;;;0.47;0.35;;;13.20;99.90;;;;;;5074433;28;20044;-73
2023/07/30 00:52:20;;;;;;;4.85;0.70;;;13.20;99.90;;;;;;5073012;28;20406;-73
2023/07/30 00:54:48;;;;;;;2.80;0.20;;;13.20;99.90;;;;;;5073609;28;20488;-73
2023/07/30 00:57:16;;;;;;;0.70;0.65;;;13.50;99.90;;;;;;5074348;28;20503;-73
2023/07/30 00:59:43;;;;;;;1.65;0.63;;;13.20;99.90;;;;;;5074589;28;20044;-73
2023/07/30 01:02:08;;;;;;;0.60;0.57;;;13.20;99.90;;;;;;5066268;28;20398;-73
2023/07/30 01:04:37;;;;;;;0.93;0.50;;;13.20;99.90;;;;;;5067632;28;20037;-73
2023/07/30 01:07:03;;;;;;;0.00;0.00;;;13.20;99.90;;;;;;5074182;28;20053;-73
2023/07/30 01:09:28;;;;;;;0.15;0.15;;;12.90;99.90;;;;;;5074157;28;20112;-73
2023/07/30 01:11:55;;;;;;;0.68;0.57;;;13.20;99.90;;;;;;5065723;28;20065;-73
2023/07/30 01:14:22;;;;;;;0.52;0.52;;;13.20;99.90;;;;;;5073441;28;20501;-73
2023/07/30 01:16:49;;;;;;;0.43;0.43;;;13.30;99.90;;;;;;5074257;28;20049;-73
2023/07/30 01:19:14;;;;;;;0.30;0.20;;;13.30;99.90;;;;;;5074254;28;20226;-73
2023/07/30 01:21:40;;;;;;;0.28;0.20;;;13.40;99.90;;;;;;5065372;28;20127;-71
2023/07/30 01:24:05;;;;;;;0.00;0.00;;;13.50;99.90;;;;;;5073930;28;20040;-71
2023/07/30 01:26:44;;;;;;;0.10;0.10;;;13.50;99.90;;;;;;5073479;28;20146;-73
2023/07/30 01:29:16;;;;;;;0.05;0.05;;;13.50;99.90;;;;;;5070121;28;20052;-73
2023/07/30 01:31:43;;;;;;;0.30;0.22;;;13.60;99.90;;;;;;5072030;28;20455;-73
2023/07/30 01:34:10;;;;;;;0.10;0.10;;;13.60;99.90;;;;;;5066026;28;20042;-73
2023/07/30 01:36:38;;;;;;;5.68;0.32;;;13.50;99.90;;;;;;5073565;28;20033;-73
2023/07/30 01:39:05;;;;;;;0.00;0.00;;;13.50;99.90;;;;;;5073416;28;20041;-73
2023/07/30 01:41:31;;;;;;;5.38;1.45;;;13.50;99.90;;;;;;5066411;28;20068;-71
2023/07/30 01:43:57;;;;;;;3.38;1.40;;;13.60;99.90;;;;;;5073079;28;20040;-73
2023/07/30 01:46:22;;;;;;;0.38;0.25;;;13.50;99.90;;;;;;5072664;28;20033;-73
2023/07/30 01:48:48;;;;;;;3.40;1.48;;;13.50;99.90;;;;;;5073310;28;20195;-74
2023/07/30 01:51:14;;;;;;;1.45;0.38;;;13.50;99.90;;;;;;5068149;28;20040;-72
2023/07/30 01:53:39;;;;;;;0.45;0.30;;;13.50;99.90;;;;;;5073720;28;20384;-72
2023/07/30 01:56:05;;;;;;;0.45;0.35;;;13.50;99.90;;;;;;5073140;28;20036;-72
2023/07/30 01:58:30;;;;;;;18.98;0.85;;;13.60;99.90;;;;;;5071869;28;20605;-72
2023/07/30 02:00:56;;;;;;;0.15;0.13;;;13.60;99.90;;;;;;5064158;28;20043;-72
2023/07/30 02:03:21;;;;;;;0.38;0.38;;;13.60;99.90;;;;;;5072310;28;20082;-72
2023/07/30 02:05:47;;;;;;;0.90;0.55;;;13.60;99.90;;;;;;5073322;28;20169;-72
2023/07/30 02:08:15;;;;;;;1.60;0.80;;;13.60;99.90;;;;;;5072858;28;20098;-72
2023/07/30 02:10:41;;;;;;;0.45;0.25;;;13.60;99.90;;;;;;5072117;28;20491;-72
2023/07/30 02:13:07;;;;;;;1.15;0.50;;;13.60;99.90;;;;;;5073102;28;20040;-72
2023/07/30 02:15:33;;;;;;;2.10;1.67;;;13.60;99.90;;;;;;5064725;28;20040;-72
2023/07/30 02:17:58;;;;;;;0.70;0.63;;;13.60;99.90;;;;;;5072909;28;20044;-72
2023/07/30 02:20:24;;;;;;;0.35;0.35;;;13.60;99.90;;;;;;5072805;28;20049;-72
2023/07/30 02:22:49;;;;;;;0.17;0.17;;;13.60;99.90;;;;;;5072334;28;20063;-72
2023/07/30 02:25:15;;;;;;;0.38;0.32;;;13.50;99.90;;;;;;5072837;28;20036;-72
2023/07/30 02:27:41;;;;;;;0.10;0.10;;;13.50;99.90;;;;;;5072052;28;20087;-72
2023/07/30 02:30:07;;;;;;;2.80;1.10;;;13.50;99.90;;;;;;5072665;28;20449;-72
2023/07/30 02:32:32;;;;;;;1.33;0.90;;;13.50;99.90;;;;;;5067802;28;20035;-72
2023/07/30 02:34:58;;;;;;;1.02;0.43;;;13.50;99.90;;;;;;5072492;28;20450;-72
2023/07/30 02:37:23;;;;;;;0.22;0.17;;;13.40;99.90;;;;;;5072789;28;20048;-72
2023/07/30 02:39:49;;;;;;;7.32;1.65;;;13.40;99.90;;;;;;5063901;28;20041;-72
2023/07/30 02:42:14;;;;;;;0.00;0.00;;;13.50;99.90;;;;;;5067107;28;20085;-72
2023/07/30 02:44:40;;;;;;;1.50;0.60;;;13.30;99.90;;;;;;5067298;28;20033;-72
2023/07/30 02:47:06;;;;;;;0.60;0.60;;;13.30;99.90;;;;;;5072496;28;20052;-72
2023/07/30 02:49:31;;;;;;;0.65;0.65;;;13.30;99.90;;;;;;5072843;28;20032;-72
2023/07/30 02:51:57;;;;;;;1.80;0.20;;;13.30;99.90;;;;;;5058879;28;20040;-72
2023/07/30 02:54:22;;;;;;;3.55;0.52;;;13.30;99.90;;;;;;5072577;28;20533;-72
2023/07/30 02:56:48;;;;;;;0.00;0.00;;;13.30;99.90;;;;;;5072120;28;20056;-72
2023/07/30 02:59:14;;;;;;;0.25;0.25;;;13.50;99.90;;;;;;5072175;28;20037;-72
2023/07/30 03:01:39;;;;;;;9.55;0.80;;;13.50;99.90;;;;;;5071601;28;20131;-72
2023/07/30 03:04:05;;;;;;;4.10;1.40;;;13.60;99.90;;;;;;5072220;28;20116;-72
2023/07/30 03:06:31;;;;;;;2.85;1.60;;;13.60;99.90;;;;;;5072392;28;20091;-72
2023/07/30 03:08:57;;;;;;;0.28;0.17;;;13.60;99.90;;;;;;5072487;28;20115;-72
2023/07/30 03:11:23;;;;;;;1.27;0.90;;;13.70;99.90;;;;;;5069923;28;20145;-72
2023/07/30 03:13:48;;;;;;;1.33;0.65;;;13.70;99.90;;;;;;5072262;28;20059;-72
2023/07/30 03:16:14;;;;;;;1.00;0.30;;;13.70;99.90;;;;;;5072045;28;20036;-72
2023/07/30 03:18:40;;;;;;;0.60;0.52;;;13.80;99.90;;;;;;5072020;28;20115;-72
2023/07/30 03:21:05;;;;;;;0.30;0.30;;;13.70;99.90;;;;;;5071745;28;20044;-72
2023/07/30 03:23:31;;;;;;;1.10;0.90;;;13.80;99.90;;;;;;5068901;28;20402;-72
2023/07/30 03:25:58;;;;;;;0.38;0.38;;;13.80;99.90;;;;;;5065868;28;20048;-72
2023/07/30 03:28:23;;;;;;;2.92;1.50;;;13.90;99.90;;;;;;5072072;28;20052;-72
2023/07/30 03:30:49;;;;;;;0.52;0.52;;;13.90;99.90;;;;;;5071920;28;20503;-72
2023/07/30 03:33:15;;;;;;;2.90;0.98;;;14.00;99.90;;;;;;5071548;28;20068;-72
2023/07/30 03:35:40;;;;;;;0.00;0.00;;;13.90;99.90;;;;;;5071295;28;20048;-72
2023/07/30 03:38:06;;;;;;;1.92;0.93;;;13.90;99.90;;;;;;5072083;28;20047;-72
2023/07/30 03:40:31;;;;;;;0.57;0.30;;;13.90;99.90;;;;;;5071915;28;20037;-72
2023/07/30 03:42:57;;;;;;;0.55;0.55;;;13.90;99.90;;;;;;5064062;28;20418;-72
2023/07/30 03:45:23;;;;;;;1.25;0.88;;;14.10;99.90;;;;;;5067272;28;20040;-72
2023/07/30 03:47:48;;;;;;;1.23;0.50;;;13.90;99.90;;;;;;5071784;28;20135;-72
2023/07/30 03:50:14;;;;;;;0.00;0.00;;;13.90;99.90;;;;;;5072004;28;20120;-72
2023/07/30 03:52:40;;;;;;;9.32;1.77;;;13.90;99.90;;;;;;5071060;28;20068;-72
2023/07/30 03:55:06;;;;;;;0.17;0.17;;;13.90;99.90;;;;;;5067818;28;20068;-72
2023/07/30 03:57:31;;;;;;;0.17;0.05;;;13.90;99.90;;;;;;5071007;28;20091;-72
2023/07/30 03:59:57;;;;;;;0.50;0.45;;;13.80;99.90;;;;;;5071531;28;20041;-72
2023/07/30 04:02:22;;;;;;;0.38;0.38;;;13.90;99.90;;;;;;5070911;28;20428;-72
2023/07/30 04:04:49;;;;;;;1.63;0.57;;;13.80;99.90;;;;;;5071926;28;20052;-72
2023/07/30 04:07:15;;;;;;;1.13;1.02;;;13.70;99.90;;;;;;5071698;28;20051;-72
2023/07/30 04:09:41;;;;;;;2.47;0.68;;;13.70;99.90;;;;;;5072913;28;20045;-72
2023/07/30 04:12:07;;;;;;;1.00;0.93;;;13.70;99.90;;;;;;5071952;28;20791;-72
2023/07/30 04:14:32;;;;;;;4.28;1.02;;;13.60;99.90;;;;;;5067403;28;20040;-72
2023/07/30 04:16:58;;;;;;;13.02;1.27;;;13.60;99.90;;;;;;5075319;28;20048;-72
2023/07/30 04:19:24;;;;;;;1.17;0.85;;;13.70;99.90;;;;;;5075228;28;20402;-72
2023/07/30 04:21:49;;;;;;;0.32;0.32;;;13.60;99.90;;;;;;5074071;28;20162;-72
2023/07/30 04:24:15;;;;;;;1.45;0.98;;;13.60;99.90;;;;;;5075199;28;20044;-72
2023/07/30 04:26:40;;;;;;;1.20;1.10;;;13.60;99.90;;;;;;5074945;28;20040;-72
2023/07/30 04:29:06;;;;;;;5.22;0.55;;;13.60;99.90;;;;;;5074929;28;20123;-72
2023/07/30 04:31:32;;;;;;;0.00;0.00;;;13.70;99.90;;;;;;5071072;28;20291;-72
2023/07/30 04:33:58;;;;;;;0.00;0.00;;;13.70;99.90;;;;;;5074237;28;20044;-72
2023/07/30 04:36:24;;;;;;;0.00;0.00;;;13.80;99.90;;;;;;5074900;28;20036;-72
2023/07/30 04:38:50;;;;;;;1.00;0.47;;;13.70;99.90;;;;;;5074995;28;20050;-72
2023/07/30 04:41:17;;;;;;;0.13;0.13;;;13.70;99.90;;;;;;5074782;28;20040;-72
2023/07/30 04:43:42;;;;;;;8.25;1.50;;;13.70;99.90;;;;;;5074184;28;20544;-72
2023/07/30 04:46:08;;;;;;;1.17;0.13;;;13.90;99.90;;;;;;5073914;28;20173;-72
2023/07/30 04:48:33;;;;;;;0.32;0.10;;;13.90;99.90;;;;;;5074906;28;20441;-72
2023/07/30 04:50:59;;;;;;;0.00;0.00;;;14.10;99.90;;;;;;5074698;28;20068;-72
2023/07/30 04:53:25;;;;;;;1.23;0.38;;;14.20;99.90;;;;;;5073908;28;20098;-72
2023/07/30 04:55:56;;;;;;;2.00;1.00;;;14.40;99.90;;;;;;5074390;28;20554;-72
2023/07/30 04:58:22;;;;;;;1.17;1.08;;;14.50;99.90;;;;;;5073683;28;20068;-72
2023/07/30 05:00:48;;;;;;;0.08;0.08;;;14.70;99.90;;;;;;5074330;28;20083;-72
2023/07/30 05:03:14;;;;;;;0.52;0.50;;;14.80;99.90;;;;;;5073520;28;20053;-72
2023/07/30 05:05:40;;;;;;;0.88;0.77;;;15.90;99.90;;;;;;5066182;28;20052;-72
2023/07/30 05:08:05;;;;;;;0.00;0.00;;;15.00;17.00;;;;;;5074270;28;20071;-72
2023/07/30 05:10:31;;;;;;;0.85;0.68;;;15.00;1.00;;;;;;5073418;28;20039;-72
2023/07/30 05:12:56;;;;;;;0.10;0.10;;;15.10;1.00;;;;;;5072478;28;20554;-72
2023/07/30 05:15:22;;;;;;;0.00;0.00;;;15.20;99.90;;;;;;5073958;28;20045;-72
2023/07/30 05:17:48;;;;;;;0.50;0.50;;;15.20;99.90;;;;;;5074312;28;20479;-72
2023/07/30 05:20:13;;;;;;;0.22;0.20;;;15.20;99.90;;;;;;5073942;28;20484;-72
2023/07/30 05:22:39;;;;;;;0.30;0.13;;;15.30;99.90;;;;;;5070648;28;20426;-72
2023/07/30 05:25:05;;;;;;;0.10;0.10;;;15.30;99.90;;;;;;5073863;28;20070;-72
2023/07/30 05:27:31;;;;;;;0.77;0.50;;;15.40;99.90;;;;;;5073840;28;20071;-72
2023/07/30 05:29:57;;;;;;;0.47;0.20;;;15.50;99.90;;;;;;5073829;28;20048;-72
2023/07/30 05:32:23;;;;;;;6.63;1.88;;;15.50;99.90;;;;;;5073186;28;20085;-72
2023/07/30 05:34:48;;;;;;;0.73;0.73;;;15.60;99.90;;;;;;5073845;28;20033;-72
2023/07/30 05:37:14;;;;;;;0.55;0.50;;;15.70;99.90;;;;;;5073742;28;20037;-72
2023/07/30 05:39:40;;;;;;;0.20;0.20;;;15.90;99.90;;;;;;5073477;28;20394;-72
2023/07/30 05:42:05;;;;;;;0.35;0.32;;;16.10;99.90;;;;;;5072982;28;20040;-72
2023/07/30 05:44:31;;;;;;;0.80;0.57;;;16.20;76.30;;;;;;5071735;28;20032;-72
2023/07/30 05:46:56;;;;;;;0.10;0.10;;;16.30;1.00;;;;;;5072203;28;20396;-72
2023/07/30 05:49:22;;;;;;;2.58;1.45;;;16.30;1.00;;;;;;5073558;28;20043;-72
2023/07/30 05:51:48;;;;;;;1.15;1.10;;;16.40;1.00;;;;;;5073389;28;20037;-73
2023/07/30 05:54:13;;;;;;;0.70;0.47;;;16.40;1.00;;;;;;5067973;28;20036;-72
2023/07/30 05:56:39;;;;;;;0.10;0.10;;;16.40;1.00;;;;;;5072285;28;20411;-72
2023/07/30 05:59:04;;;;;;;1.35;0.80;;;16.60;99.90;;;;;;5073178;28;20040;-72
2023/07/30 06:01:30;;;;;;;0.03;0.03;;;16.70;1.00;;;;;;5073410;28;20036;-72
2023/07/30 06:03:55;;;;;;;0.85;0.60;;;16.80;99.90;;;;;;5073280;28;20040;-72
2023/07/30 06:06:27;;;;;;;1.15;0.38;;;16.80;99.90;;;;;;5072393;28;20479;-72
2023/07/30 06:08:54;;;;;;;0.82;0.47;;;16.90;99.90;;;;;;5063532;28;20056;-72
2023/07/30 06:11:19;;;;;;;0.45;0.40;;;16.90;76.40;;;;;;5072104;28;20098;-73
2023/07/30 06:13:45;;;;;;;1.25;0.93;;;17.00;1.00;;;;;;5073023;28;20084;-72
2023/07/30 06:16:11;;;;;;;0.90;0.85;;;17.30;99.90;;;;;;5072034;28;20084;-72
2023/07/30 06:18:37;;;;;;;0.85;0.25;;;17.10;99.90;;;;;;5067839;28;20469;-73
2023/07/30 06:21:03;;;;;;;0.00;0.00;;;17.30;57.60;;;;;;5070962;28;20139;-72
2023/07/30 06:23:28;;;;;;;0.35;0.35;;;17.30;99.90;;;;;;5072802;28;20044;-73
2023/07/30 06:25:54;;;;;;;0.75;0.38;;;17.30;99.90;;;;;;5071584;28;20507;-73
2023/07/30 06:28:20;;;;;;;1.55;1.30;;;17.30;1.00;;;;;;5072103;28;20033;-72
2023/07/30 06:30:45;;;;;;;1.05;0.75;;;17.30;99.90;;;;;;5071367;28;20093;-72
2023/07/30 06:33:11;;;;;;;0.63;0.45;;;17.30;1.00;;;;;;5072326;28;20041;-72
2023/07/30 06:35:36;;;;;;;0.45;0.45;;;17.20;1.00;;;;;;5068874;28;20036;-73
2023/07/30 06:38:02;;;;;;;0.00;0.00;;;17.00;99.90;;;;;;5072751;28;20544;-73
2023/07/30 06:40:28;;;;;;;1.15;0.93;;;17.10;99.90;;;;;;5071737;28;20033;-72
2023/07/30 06:42:53;;;;;;;0.22;0.22;;;16.90;99.90;;;;;;5072756;28;20040;-72
2023/07/30 06:45:19;;;;;;;0.43;0.43;;;17.00;99.90;;;;;;5071979;28;20055;-72
2023/07/30 06:47:45;;;;;;;2.10;1.02;;;17.00;99.90;;;;;;5071906;28;20499;-72
2023/07/30 06:50:10;;;;;;;5.70;1.77;;;17.20;99.90;;;;;;5072435;28;20147;-72
2023/07/30 06:52:37;;;;;;;4.68;1.17;;;17.30;99.90;;;;;;5072500;28;20036;-72
2023/07/30 06:55:03;;;;;;;0.35;0.30;;;17.40;70.00;;;;;;5072198;28;20041;-72
2023/07/30 06:57:30;;;;;;;2.55;0.80;;;17.50;1.00;;;;;;5072613;28;20083;-72
2023/07/30 06:59:56;;;;;;;5.25;2.47;;;17.60;61.40;;;;;;5071556;28;20040;-72
2023/07/30 07:02:21;;;;;;;0.20;0.17;;;18.10;99.90;;;;;;5071059;28;20045;-72
2023/07/30 07:04:47;;;;;;;3.60;2.42;;;18.60;1.00;;;;;;5067101;28;20058;-72
2023/07/30 07:07:13;;;;;;;1.38;1.25;;;18.90;99.90;;;;;;5072277;28;20052;-72
2023/07/30 07:09:38;;;;;;;4.60;1.45;;;18.80;99.90;;;;;;5071519;28;20471;-72
2023/07/30 07:12:04;;;;;;;2.40;1.08;;;18.70;1.00;;;;;;5072210;28;20484;-72
2023/07/30 07:14:30;;;;;;;0.70;0.43;;;18.70;99.90;;;;;;5072431;28;20120;-72
2023/07/30 07:16:56;;;;;;;0.77;0.55;;;19.00;99.90;;;;;;5072421;28;20474;-72
2023/07/30 07:19:22;;;;;;;8.45;1.20;;;19.60;99.90;;;;;;5063842;28;20119;-72
2023/07/30 07:21:47;;;;;;;0.30;0.25;;;19.90;99.90;;;;;;5071558;28;20062;-72
2023/07/30 07:24:13;;;;;;;2.25;1.55;;;19.80;99.90;;;;;;5072137;28;20033;-72
2023/07/30 07:26:38;;;;;;;1.52;0.88;;;19.50;67.80;;;;;;5072085;28;20491;-72
2023/07/30 07:29:04;;;;;;;0.17;0.17;;;19.20;99.90;;;;;;5070682;28;20090;-73
2023/07/30 07:31:30;;;;;;;0.30;0.30;;;19.00;99.90;;;;;;5063957;28;20059;-73
2023/07/30 07:33:55;;;;;;;2.22;1.65;;;18.90;99.90;;;;;;5068227;28;20040;-73
2023/07/30 07:36:21;;;;;;;1.10;0.40;;;18.90;1.00;;;;;;5067266;28;20048;-73
2023/07/30 07:38:46;;;;;;;4.65;1.55;;;19.00;1.00;;;;;;5068798;28;20123;-73
2023/07/30 07:41:16;;;;;;;0.45;0.43;;;19.60;99.90;;;;;;5060105;28;20094;-73
2023/07/30 07:43:43;;;;;;;0.80;0.55;;;19.80;24.80;;;;;;5070007;28;20089;-72
2023/07/30 07:46:13;;;;;;;9.30;1.25;;;19.90;1.00;;;;;;5072382;28;20044;-72
2023/07/30 07:48:40;;;;;;;0.20;0.20;;;20.10;99.90;;;;;;5072788;28;20110;-73
2023/07/30 07:51:06;;;;;;;1.25;0.47;;;20.30;99.90;;;;;;5063746;28;20040;-77
2023/07/30 07:53:31;;;;;;;0.40;0.35;;;20.40;99.90;;;;;;5068440;28;20446;-72
2023/07/30 07:55:57;;;;;;;0.10;0.10;;;20.80;99.90;;;;;;5072585;28;20033;-72
2023/07/30 07:58:22;;;;;;;0.15;0.15;;;21.20;99.90;;;;;;5067669;28;20436;-73
2023/07/30 08:00:48;;;;;;;0.10;0.10;;;21.70;99.90;;;;;;5062282;28;20041;-73
2023/07/30 08:03:13;;;;;;;0.28;0.10;;;22.30;99.90;;;;;;5066168;28;20059;-72
2023/07/30 08:05:39;;;;;;;0.70;0.50;;;23.10;11.30;;;;;;5063428;28;20037;-73
2023/07/30 08:08:05;;;;;;;0.75;0.55;;;23.20;1.00;;;;;;5072139;28;20153;-73
2023/07/30 08:10:30;;;;;;;3.03;1.02;;;23.40;1.00;;;;;;5071087;28;20052;-72
2023/07/30 08:12:56;;;;;;;0.90;0.68;;;23.20;1.00;;;;;;5068237;28;20041;-73
2023/07/30 08:15:22;;;;;;;0.03;0.03;;;22.80;1.00;;;;;;5072005;28;20499;-73
2023/07/30 08:17:47;;;;;;;1.55;0.38;;;22.30;1.00;;;;;;5061824;28;20075;-73
2023/07/30 08:20:13;;;;;;;0.85;0.30;;;21.80;99.90;;;;;;5071819;28;20043;-73
2023/07/30 08:22:38;;;;;;;1.85;0.60;;;21.40;99.90;;;;;;5071755;28;20044;-73
2023/07/30 08:25:04;;;;;;;0.25;0.20;;;20.80;99.90;;;;;;5072250;28;20044;-72
2023/07/30 08:27:30;;;;;;;0.43;0.22;;;20.30;99.90;;;;;;5072086;28;20494;-72
2023/07/30 08:29:56;;;;;;;2.13;0.40;;;19.60;99.90;;;;;;5072081;28;20086;-72
2023/07/30 08:32:21;;;;;;;1.65;0.57;;;18.80;1.00;;;;;;5072038;28;20048;-73
2023/07/30 08:34:47;;;;;;;0.35;0.28;;;18.00;88.70;;;;;;5071970;28;20440;-73
2023/07/30 08:37:13;;;;;;;0.25;0.22;;;17.30;99.90;;;;;;5071762;28;20090;-73
2023/07/30 08:39:38;;;;;;;0.00;0.00;;;16.70;99.90;;;;;;5071945;28;20048;-73
2023/07/30 08:42:04;;;;;;;4.47;0.65;;;16.60;1.00;;;;;;5072270;28;20037;-73
2023/07/30 08:44:30;;;;;;;0.00;0.00;;;16.40;1.00;;;;;;5072039;28;20395;-73
2023/07/30 08:46:55;;;;;;;0.17;0.17;;;16.40;29.60;;;;;;5072051;28;20048;-73
2023/07/30 08:49:21;;;;;;;2.08;1.27;;;16.40;99.90;;;;;;5071912;28;20044;-73
2023/07/30 08:51:51;;;;;;;0.98;0.57;;;16.50;99.90;;;;;;5071791;28;20040;-73
2023/07/30 08:54:18;;;;;;;0.20;0.20;;;16.50;1.00;;;;;;5071368;28;20043;-73
2023/07/30 08:56:44;;;;;;;0.25;0.25;;;16.40;12.10;;;;;;5068435;28;20575;-73
2023/07/30 08:59:11;;;;;;;0.10;0.10;;;16.30;99.90;;;;;;5066071;28;20056;-73
2023/07/30 09:01:39;;;;;;;0.32;0.32;;;16.30;1.00;;;;;;5070963;28;20041;-73
2023/07/30 09:04:06;;;;;;;4.07;0.32;;;16.40;1.00;;;;;;5067196;28;20056;-73
2023/07/30 09:06:32;;;;;;;0.45;0.30;;;16.50;1.00;;;;;;5065285;28;20090;-73
2023/07/30 09:08:58;;;;;;;0.00;0.00;;;16.70;1.00;;;;;;5068293;28;20048;-73
2023/07/30 09:11:29;;;;;;;0.10;0.10;;;17.00;1.00;;;;;;5070156;28;20055;-73
2023/07/30 09:13:56;;;;;;;0.90;0.70;;;17.40;74.60;;;;;;5071112;28;20044;-73
2023/07/30 09:16:26;;;;;;;0.10;0.10;;;17.90;1.00;;;;;;5070216;28;20094;-73
2023/07/30 09:18:53;;;;;;;0.95;0.45;;;18.40;99.90;;;;;;5067925;28;20036;-72
2023/07/30 09:21:19;;;;;;;0.28;0.28;;;19.00;99.90;;;;;;5061887;28;20049;-73
2023/07/30 09:23:46;;;;;;;0.10;0.10;;;19.20;1.00;;;;;;5069529;28;20116;-73
2023/07/30 09:26:13;;;;;;;0.63;0.35;;;19.30;99.90;;;;;;5070951;28;20040;-73
2023/07/30 09:28:40;;;;;;;0.05;0.05;;;19.20;1.00;;;;;;5069245;28;20082;-72
2023/07/30 09:31:08;;;;;;;0.10;0.10;;;18.90;1.00;;;;;;5071074;28;20052;-73
2023/07/30 09:33:35;;;;;;;0.10;0.10;;;18.50;40.00;;;;;;5067486;28;20483;-73
2023/07/30 09:36:04;;;;;;;0.00;0.00;;;18.20;99.90;;;;;;5069957;28;20083;-73
2023/07/30 09:38:32;;;;;;;0.20;0.20;;;17.70;99.90;;;;;;5064740;28;20032;-73
2023/07/30 09:41:02;;;;;;;0.63;0.50;;;17.30;99.90;;;;;;5069976;28;20041;-73
2023/07/30 09:43:35;;;;;;;0.00;0.00;;;16.90;99.90;;;;;;5070623;28;20120;-73
2023/07/30 09:46:02;;;;;;;0.00;0.00;;;16.60;99.90;;;;;;5062198;28;20044;-73
2023/07/30 09:48:31;;;;;;;4.85;1.55;;;16.50;1.00;;;;;;5070634;28;20037;-74
2023/07/30 09:51:02;;;;;;;2.47;1.15;;;16.50;99.90;;;;;;5064237;28;20052;-73
2023/07/30 09:53:35;;;;;;;0.15;0.10;;;16.60;99.90;;;;;;5063710;28;20098;-73
2023/07/30 09:56:05;;;;;;;0.00;0.00;;;16.60;25.70;;;;;;5069326;28;20103;-73
2023/07/30 09:58:31;;;;;;;0.25;0.25;;;16.60;99.90;;;;;;5069691;28;20582;-73
2023/07/30 10:01:03;;;;;;;0.55;0.47;;;16.70;99.90;;;;;;5068287;28;20122;-72
2023/07/30 10:03:29;;;;;;;0.05;0.05;;;16.70;1.00;;;;;;5070245;28;20055;-72
2023/07/30 10:06:02;;;;;;;0.00;0.00;;;16.50;1.00;;;;;;5069085;28;20036;-72
2023/07/30 10:08:31;;;;;;;0.00;0.00;;;16.50;1.00;;;;;;5069824;28;20086;-73
2023/07/30 10:10:57;;;;;;;0.60;0.22;;;16.30;99.90;;;;;;5069059;28;20063;-72
2023/07/30 10:13:24;;;;;;;0.47;0.13;;;16.20;99.90;;;;;;5070112;28;20522;-73
2023/07/30 10:15:50;;;;;;;0.00;0.00;;;16.20;99.90;;;;;;5069944;28;20444;-73
2023/07/30 10:18:16;;;;;;;0.22;0.22;;;16.30;99.90;;;;;;5070073;28;20036;-72
2023/07/30 10:20:52;;;;;;;0.10;0.10;;;16.50;99.90;;;;;;5065152;28;20090;-73
2023/07/30 10:23:18;;;;;;;0.10;0.10;;;16.50;99.90;;;;;;5066507;28;20602;-73
2023/07/30 10:25:46;;;;;;;0.25;0.25;;;16.70;99.90;;;;;;5069027;28;20156;-73
2023/07/30 10:28:31;;;;;;;0.00;0.00;;;16.90;99.90;;;;;;5069512;28;20495;-73
2023/07/30 10:31:01;;;;;;;0.10;0.10;;;17.30;99.90;;;;;;5062536;28;20091;-72
2023/07/30 10:33:55;;;;;;;0.73;0.65;;;17.60;1.00;;;;;;5069044;28;20052;-73
2023/07/30 10:36:32;;;;;;;0.00;0.00;;;17.90;1.00;;;;;;5065524;28;20050;-72
2023/07/30 10:39:25;;;;;;;0.00;0.00;;;18.00;99.90;;;;;;5062754;28;20094;-72
2023/07/30 10:41:54;;;;;;;0.20;0.10;;;18.20;49.00;;;;;;5065803;28;20045;-73
2023/07/30 10:44:34;;;;;;;0.45;0.43;;;18.40;99.90;;;;;;5069258;28;20040;-72
2023/07/30 10:47:01;;;;;;;0.00;0.00;;;19.10;99.90;;;;;;5061431;28;20040;-72
2023/07/30 10:49:26;;;;;;;0.00;0.00;;;19.60;99.90;;;;;;5068951;28;20396;-73
2023/07/30 10:51:53;;;;;;;7.43;0.38;;;19.70;1.00;;;;;;5063740;28;20040;-73
2023/07/30 10:54:19;;;;;;;0.13;0.13;;;19.70;99.90;;;;;;5060837;28;20048;-73
2023/07/30 10:56:45;;;;;;;0.08;0.08;;;19.40;99.90;;;;;;5069247;28;20041;-73
2023/07/30 10:59:12;;;;;;;0.45;0.38;;;18.70;99.90;;;;;;5061121;28;20055;-73
2023/07/30 11:01:39;;;;;;;0.10;0.10;;;17.80;99.90;;;;;;5068765;28;20407;-73
2023/07/30 11:04:13;;;;;;;0.73;0.50;;;17.10;99.90;;;;;;5063459;28;20569;-72
2023/07/30 11:06:39;;;;;;;10.95;0.85;;;16.50;99.90;;;;;;5069235;28;20049;-72
2023/07/30 11:09:05;;;;;;;6.80;1.30;;;16.10;99.90;;;;;;5068357;28;20056;-72
2023/07/30 11:11:31;;;;;;;0.28;0.28;;;15.90;99.90;;;;;;5061789;28;20091;-72
2023/07/30 11:13:58;;;;;;;0.00;0.00;;;15.90;99.90;;;;;;5069384;28;20530;-72
2023/07/30 11:16:24;;;;;;;0.43;0.20;;;15.80;99.90;;;;;;5066967;28;20032;-72
2023/07/30 11:18:50;;;;;;;0.17;0.13;;;15.90;99.90;;;;;;5073210;28;20059;-72
2023/07/30 11:21:17;;;;;;;0.30;0.30;;;16.20;99.90;;;;;;5073930;28;20044;-72
2023/07/30 11:23:44;;;;;;;1.90;0.75;;;16.50;99.90;;;;;;5075683;28;20537;-72
2023/07/30 11:26:18;;;;;;;0.77;0.50;;;17.00;99.90;;;;;;5074363;28;20092;-74
2023/07/30 11:28:44;;;;;;;0.98;0.10;;;17.50;99.90;;;;;;5067586;28;20495;-72
2023/07/30 11:31:21;;;;;;;0.47;0.22;;;17.60;99.90;;;;;;5074031;28;20063;-72
2023/07/30 11:33:48;;;;;;;3.03;1.00;;;18.00;99.90;;;;;;5067563;28;20428;-72
2023/07/30 11:36:19;;;;;;;4.07;1.52;;;18.40;99.90;;;;;;5075517;28;20085;-72
2023/07/30 11:38:46;;;;;;;0.25;0.20;;;18.80;99.90;;;;;;5075458;28;20197;-72
2023/07/30 11:41:13;;;;;;;1.63;0.85;;;18.70;1.00;;;;;;5064506;28;20112;-72
2023/07/30 11:43:41;;;;;;;0.08;0.05;;;18.50;1.00;;;;;;5073525;28;20044;-72
2023/07/30 11:46:07;;;;;;;0.03;0.03;;;18.70;99.90;;;;;;5072020;28;20058;-72
2023/07/30 11:48:33;;;;;;;0.75;0.45;;;19.40;99.90;;;;;;5075032;28;20048;-72
2023/07/30 11:50:59;;;;;;;0.20;0.20;;;19.80;99.90;;;;;;5069390;28;20048;-72
2023/07/30 11:53:44;;;;;;;0.30;0.30;;;19.40;1.00;;;;;;5072779;28;20095;-72
2023/07/30 11:56:21;;;;;;;0.10;0.10;;;19.50;99.90;;;;;;5067579;28;20119;-72
2023/07/30 11:58:48;;;;;;;0.82;0.40;;;19.20;99.90;;;;;;5074956;28;20301;-72
2023/07/30 12:01:16;;;;;;;0.13;0.13;;;18.50;99.90;;;;;;5074739;28;20048;-72
2023/07/30 12:03:41;;;;;;;0.00;0.00;;;18.40;1.00;;;;;;5066765;28;20109;-72
2023/07/30 12:06:09;;;;;;;0.00;0.00;;;18.60;38.90;;;;;;5075446;28;20151;-72
2023/07/30 12:08:35;;;;;;;0.10;0.10;;;18.50;99.90;;;;;;5071181;28;20097;-72
2023/07/30 12:11:08;;;;;;;0.32;0.28;;;18.40;99.90;;;;;;5070498;28;20052;-72
2023/07/30 12:13:43;;;;;;;0.00;0.00;;;18.60;99.90;;;;;;5075435;28;20052;-72
2023/07/30 12:16:08;;;;;;;0.08;0.08;;;18.70;76.40;;;;;;5075717;28;20223;-72
2023/07/30 12:18:34;;;;;;;0.00;0.00;;;18.80;99.90;;;;;;5073564;28;20128;-72
2023/07/30 12:20:59;;;;;;;0.35;0.28;;;19.60;1.00;;;;;;5070268;28;20040;-72
2023/07/30 12:23:25;;;;;;;0.80;0.73;;;20.40;99.90;;;;;;5068295;28;20112;-72
2023/07/30 12:25:51;;;;;;;0.00;0.00;;;20.10;99.90;;;;;;5075336;28;20097;-72
2023/07/30 12:28:17;;;;;;;0.00;0.00;;;19.50;70.10;;;;;;5071603;28;20399;-72
2023/07/30 12:30:42;;;;;;;1.45;0.20;;;19.00;1.00;;;;;;5064824;28;20047;-72
2023/07/30 12:33:08;;;;;;;1.17;0.40;;;18.50;1.00;;;;;;5068259;28;20068;-72
2023/07/30 12:35:33;;;;;;;0.00;0.00;;;17.70;99.90;;;;;;5070241;28;20041;-73
2023/07/30 12:38:00;;;;;;;0.10;0.10;;;16.20;1.00;;;;;;5069878;28;20044;-73
2023/07/30 12:40:26;;;;;;;0.00;0.00;;;15.40;99.90;;;;;;5068397;28;20119;-73
2023/07/30 12:42:52;;;;;;;0.00;0.00;;;15.20;1.00;;;;;;5065931;28;20059;-72
2023/07/30 12:45:18;;;;;;;0.05;0.00;;;15.10;25.50;;;;;;5071928;28;20106;-72